Flight Track Log - Related Links

Times and Time Zones

All times are in EDT time to prevent confusion due to time zone crossing. See the UAL3767 flight status page for this flight to view local times or setup timezone preferences in your user account.

Time Position Orientation Groundspeed Altitude Reporting Facility
EDT Latitude Longitude Course Direction KTS MPH feet Rate Location/Type
Sun 05:51:49 AM 41.7311 -71.4219 351° North 159 183 800  Level Boston Center
Sun 05:53:12 AM 41.8042 -71.4375 351° North 205 236 4,600 2,643 Climbing Boston Center
Sun 05:54:12 AM 41.8381 -71.5122 301° West 216 249 7,100 2,500 Climbing Boston Center
Sun 05:55:12 AM 41.8658 -71.5925 295° West 247 284 9,600 2,400 Climbing Boston Center
Sun 05:56:12 AM 41.9061 -71.7036 296° West 278 320 11,900 2,100 Climbing Boston Center
Sun 05:57:12 AM 41.9047 -71.8097 269° West 309 356 13,800 2,000 Climbing Boston Center
Sun 05:58:12 AM 41.8700 -71.9244 248° West 338 389 15,900 2,100 Climbing Boston Center
Sun 05:59:12 AM 41.8225 -72.0725 247° West 370 426 18,000 1,750 Climbing Boston Center
Sun 06:00:36 AM 41.7769 -72.2147 247° West 381 438 20,100 1,792 Climbing Boston Center
Sun 06:01:36 AM 41.7231 -72.3733 246° West 381 438 22,300 1,700 Climbing Boston Center
Sun 06:02:36 AM 41.6875 -72.4819 246° West 386 444 23,500 1,400 Climbing Boston Center
Sun 06:03:36 AM 41.6292 -72.6622 247° West 397 457 25,100 1,550 Climbing Boston Center
Sun 06:04:36 AM 41.5828 -72.8036 246° West 403 464 26,600 1,400 Climbing Boston Center
Sun 06:05:36 AM 41.5344 -72.9475 246° West 416 479 27,900 1,250 Climbing Boston Center
Sun 06:06:36 AM 41.4942 -73.0692 246° West 410 472 29,100 1,300 Climbing Boston Center
Sun 06:07:36 AM 41.4661 -73.2131 255° West 410 472 30,500 1,300 Climbing Boston Center
Sun 06:08:36 AM 41.4986 -73.3519 287° West 381 438 31,700 750 Climbing Boston Center
Sun 06:09:36 AM 41.5264 -73.4967 284° West 393 452 32,000 150 Climbing Boston Center
Sun 06:10:36 AM 41.5517 -73.6633 282° West 408 470 32,000  Level Boston Center
Sun 06:11:18 AM 41.5736 -73.7578 287° West 412 474 32,000  Level New York Center
Sun 06:12:16 AM 41.5781 -73.9103 272° West 407 468 32,000  Level New York Center
Sun 06:13:17 AM 41.5264 -74.0492 244° Southwest 397 457 32,000  Level New York Center
Sun 06:14:16 AM 41.4339 -74.1497 219° Southwest 397 457 32,000  Level New York Center
Sun 06:15:16 AM 41.3292 -74.2411 213° Southwest 421 484 32,000 -344 Level New York Center
Sun 06:16:18 AM 41.2247 -74.3242 211° Southwest 434 499 31,300 -850 Descending New York Center
Sun 06:17:16 AM 41.1200 -74.4122 212° Southwest 447 514 30,300 -661 Descending New York Center
Sun 06:18:16 AM 41.0175 -74.4975 212° Southwest 447 514 30,000 -149 Descending New York Center
Sun 06:19:17 AM 40.9147 -74.5850 213° Southwest 447 514 30,000 -50 Level New York Center
Sun 06:20:16 AM 40.8622 -74.7247 244° Southwest 418 481 29,900 -605 Descending New York Center
Sun 06:21:16 AM 40.8219 -74.8597 249° West 403 464 28,800 -984 Descending New York Center
Sun 06:22:18 AM 40.7742 -74.9772 242° Southwest 397 457 27,900 -942 Descending New York Center
Sun 06:23:17 AM 40.7203 -75.0861 237° Southwest 373 429 26,900 -1,017 Descending New York Center
Sun 06:24:16 AM 40.6683 -75.1953 238° Southwest 362 417 25,900 -1,008 Descending New York Center
Sun 06:25:16 AM 40.6164 -75.3011 237° Southwest 368 423 24,900 -992 Descending New York Center
Sun 06:26:17 AM 40.5575 -75.4231 238° Southwest 384 442 23,900 -984 Descending New York Center
Sun 06:27:18 AM 40.4986 -75.5417 237° Southwest 391 450 22,900 -1,000 Descending New York Center
Sun 06:28:17 AM 40.4394 -75.6603 237° Southwest 396 456 21,900 -1,017 Descending New York Center
Sun 06:29:16 AM 40.3803 -75.7789 237° Southwest 396 456 20,900 -950 Descending New York Center
Sun 06:30:17 AM 40.3211 -75.8969 237° Southwest 396 456 20,000 -446 Descending New York Center
Sun 06:31:17 AM 40.2597 -76.0150 236° Southwest 396 456 20,000 -504 Level New York Center
Sun 06:32:16 AM 40.1978 -76.1408 237° Southwest 396 456 19,000 -1,059 Descending New York Center
Sun 06:33:16 AM 40.1406 -76.2503 236° Southwest 377 434 17,900 -900 Descending New York Center
Sun 06:34:16 AM 40.0872 -76.3628 238° Southwest 372 428 17,200 -907 Descending New York Center
Sun 06:36:08 AM 39.9833 -76.5833 238° Southwest 366 421 15,300 -767 Descending Potomac TRACON
Sun 06:37:08 AM 39.9333 -76.6833 237° Southwest 360 414 15,000 -158 Descending Potomac TRACON
Sun 06:38:02 AM 39.9000 -76.7833 247° West 360 414 15,000  Level Potomac TRACON
Sun 06:39:02 AM 39.8500 -76.8833 237° Southwest 356 410 15,000 -450 Level Potomac TRACON
Sun 06:40:02 AM 39.7833 -77.0000 233° Southwest 352 405 14,100 -1,105 Descending Potomac TRACON
Sun 06:40:56 AM 39.7500 -77.1000 247° West 342 394 12,900 -1,105 Descending Potomac TRACON
Sun 06:41:56 AM 39.7000 -77.1833 232° Southwest 290 334 12,000 -1,050 Descending Potomac TRACON
Sun 06:42:56 AM 39.6667 -77.2667 243° Southwest 269 310 10,800 -1,053 Descending Potomac TRACON
Sun 06:43:50 AM 39.6167 -77.3333 226° Southwest 279 321 10,000 -684 Descending Potomac TRACON
Sun 06:44:50 AM 39.5500 -77.3667 201° Southwest 274 315 9,500 -950 Descending Potomac TRACON
Sun 06:45:50 AM 39.4833 -77.4167 210° Southwest 269 310 8,100 -1,350 Descending Potomac TRACON
Sun 06:46:50 AM 39.4167 -77.4333 191° South 258 297 6,800 -1,300 Descending Potomac TRACON
Sun 06:47:50 AM 39.3333 -77.4333 180° South 255 293 5,500 -1,400 Descending Potomac TRACON
Sun 06:48:50 AM 39.2667 -77.4333 180° South 244 281 4,000 -1,316 Descending Potomac TRACON
Sun 06:49:44 AM 39.2167 -77.4333 180° South 231 266 3,000 -526 Descending Potomac TRACON
Sun 06:50:44 AM 39.1500 -77.4333 180° South 225 259 3,000  Level Potomac TRACON
Sun 06:51:44 AM 39.1000 -77.4333 180° South 210 242 3,000 -450 Level Potomac TRACON
Sun 06:52:44 AM 39.0500 -77.4333 180° South 158 182 2,100 -800 Descending Potomac TRACON
Sun 06:53:44 AM 39.0167 -77.4333 180° South 127 146 1,400 -650 Descending Potomac TRACON
Sun 06:54:44 AM 38.9833 -77.4333 180° South 121 139 800 -600 Descending Potomac TRACON
Sun 06:56:00 AM 38.9474 -77.4599 180° South  Level Estimated
Sun 07:03:00 AM 38.9474 -77.4599 349° North  Level Estimated
Sun 07:04:00 AM 38.9474 -77.4599 349° North  Level Estimated

Login

Don't have an account? Register now (free) for customized features, flight alerts, and more!